createdAt,value
2019-05-22T00:01:00.200Z,32.50
2019-05-22T00:03:33.638Z,29.93
2019-05-22T00:06:04.403Z,27.87
2019-05-22T00:08:35.793Z,27.70
2019-05-22T00:11:05.623Z,29.17
2019-05-22T00:13:37.976Z,25.67
2019-05-22T00:16:08.684Z,27.07
2019-05-22T00:18:39.869Z,28.47
2019-05-22T00:21:10.215Z,29.73
2019-05-22T00:23:41.111Z,28.27
2019-05-22T00:26:11.199Z,30.73
2019-05-22T00:28:41.471Z,29.07
2019-05-22T00:31:13.334Z,29.00
2019-05-22T00:33:44.051Z,28.63
2019-05-22T00:36:14.051Z,24.60
2019-05-22T00:38:44.550Z,27.10
2019-05-22T00:41:17.788Z,24.40
2019-05-22T00:43:49.291Z,25.23
2019-05-22T00:46:20.622Z,21.97
2019-05-22T00:48:51.715Z,22.87
2019-05-22T00:51:27.143Z,20.17
2019-05-22T00:54:10.350Z,19.40
2019-05-22T00:56:41.336Z,19.20
2019-05-22T00:59:13.894Z,18.70
2019-05-22T01:01:47.855Z,17.50
2019-05-22T01:04:22.516Z,18.83
2019-05-22T01:06:54.263Z,18.83
2019-05-22T01:09:25.464Z,17.03
2019-05-22T01:11:55.574Z,14.73
2019-05-22T01:14:40.468Z,17.50
2019-05-22T01:16:57.618Z,14.70
2019-05-22T01:19:30.047Z,14.57
2019-05-22T01:22:01.857Z,13.90
2019-05-22T01:24:33.188Z,14.33
2019-05-22T01:27:04.197Z,16.33
2019-05-22T01:29:34.302Z,14.23
2019-05-22T01:32:06.653Z,14.13
2019-05-22T01:34:37.716Z,13.77
2019-05-22T01:37:11.624Z,12.57
2019-05-22T01:40:00.611Z,14.03
2019-05-22T01:42:34.059Z,11.60
2019-05-22T01:45:07.018Z,12.43
2019-05-22T01:47:40.175Z,12.93
2019-05-22T01:50:13.986Z,12.13
2019-05-22T01:52:46.054Z,13.73
2019-05-22T01:55:18.303Z,14.17
2019-05-22T01:57:50.612Z,14.10
2019-05-22T02:00:20.499Z,12.47
2019-05-22T02:02:52.081Z,15.60
2019-05-22T02:05:22.816Z,13.33
2019-05-22T02:07:53.914Z,16.43
2019-05-22T02:10:35.034Z,11.67
2019-05-22T02:13:05.784Z,12.17
2019-05-22T02:15:35.739Z,13.63
2019-05-22T02:18:09.830Z,12.10
2019-05-22T02:20:39.668Z,13.90
2019-05-22T02:23:09.591Z,14.67
2019-05-22T02:25:39.116Z,15.73
2019-05-22T02:28:09.247Z,16.63
2019-05-22T02:30:40.231Z,17.33
2019-05-22T02:33:10.239Z,17.27
2019-05-22T02:35:40.763Z,18.53
2019-05-22T02:38:10.378Z,17.23
2019-05-22T02:40:42.202Z,17.23
2019-05-22T02:43:12.794Z,17.73
2019-05-22T02:45:43.929Z,19.23
2019-05-22T02:48:15.431Z,20.17
2019-05-22T02:50:46.501Z,21.50
2019-05-22T02:53:16.335Z,23.70
2019-05-22T02:55:46.625Z,22.67
2019-05-22T02:58:16.704Z,22.67
2019-05-22T03:01:05.416Z,25.83
2019-05-22T03:03:36.490Z,23.50
2019-05-22T03:06:09.119Z,26.47
2019-05-22T03:09:02.997Z,24.43
2019-05-22T03:11:39.505Z,25.00
2019-05-22T03:14:11.382Z,24.67
2019-05-22T03:16:58.032Z,28.70
2019-05-22T03:19:33.733Z,26.83
2019-05-22T03:22:26.087Z,28.10
2019-05-22T03:24:57.953Z,26.23
2019-05-22T03:27:39.931Z,25.13
2019-05-22T03:30:18.533Z,25.83
2019-05-22T03:32:49.137Z,26.47
2019-05-22T03:35:20.329Z,25.63
2019-05-22T03:37:50.834Z,26.83
2019-05-22T03:40:21.792Z,26.80
2019-05-22T03:42:51.786Z,24.63
2019-05-22T03:45:22.362Z,24.17
2019-05-22T03:47:52.978Z,24.13
2019-05-22T03:50:23.900Z,24.57
2019-05-22T03:52:56.657Z,26.73
2019-05-22T03:55:26.568Z,26.17
2019-05-22T03:57:56.372Z,25.70
2019-05-22T04:00:27.848Z,23.60
2019-05-22T04:02:57.227Z,25.67
2019-05-22T04:05:27.737Z,24.23
2019-05-22T04:07:58.316Z,28.53
2019-05-22T04:10:30.873Z,26.33
2019-05-22T04:13:00.514Z,26.87
2019-05-22T04:15:30.808Z,26.37
2019-05-22T04:18:17.018Z,25.87
2019-05-22T04:20:46.559Z,25.23
2019-05-22T04:23:15.914Z,25.37
2019-05-22T04:25:46.333Z,27.17
2019-05-22T04:28:15.790Z,23.43
2019-05-22T04:30:46.448Z,22.37
2019-05-22T04:33:15.995Z,25.07
2019-05-22T04:35:45.912Z,23.50
2019-05-22T04:38:17.163Z,24.67
2019-05-22T04:40:48.836Z,21.67
2019-05-22T04:43:21.070Z,22.67
2019-05-22T04:45:52.033Z,23.03
2019-05-22T04:48:21.855Z,22.27
2019-05-22T04:50:51.958Z,21.83
2019-05-22T04:53:21.802Z,21.43
2019-05-22T04:55:54.750Z,28.10
2019-05-22T04:58:25.072Z,24.47
2019-05-22T05:00:54.760Z,22.23
2019-05-22T05:03:25.440Z,21.43
2019-05-22T05:05:56.107Z,21.07
2019-05-22T05:08:26.301Z,21.10
2019-05-22T05:10:57.846Z,19.53
2019-05-22T05:13:27.556Z,21.27
2019-05-22T05:15:56.911Z,21.07
2019-05-22T05:18:27.403Z,20.83
2019-05-22T05:20:57.383Z,22.47
2019-05-22T05:23:27.519Z,21.50
2019-05-22T05:25:56.944Z,20.90
2019-05-22T05:28:26.316Z,19.47
2019-05-22T05:30:57.535Z,23.77
2019-05-22T05:33:28.540Z,16.63
2019-05-22T05:35:57.900Z,19.80
2019-05-22T05:38:37.096Z,19.33
2019-05-22T05:41:07.315Z,18.40
2019-05-22T05:43:37.259Z,20.17
2019-05-22T05:46:07.548Z,18.27
2019-05-22T05:48:37.084Z,18.63
2019-05-22T05:51:09.914Z,18.03
2019-05-22T05:54:07.204Z,19.30
2019-05-22T05:56:39.221Z,17.73
2019-05-22T05:59:10.471Z,18.60
2019-05-22T06:01:44.479Z,17.83
2019-05-22T06:04:16.023Z,16.83
2019-05-22T06:06:51.877Z,18.13
2019-05-22T06:09:22.455Z,18.57
2019-05-22T06:11:59.196Z,16.53
2019-05-22T06:14:30.989Z,15.60
2019-05-22T06:17:07.847Z,12.70
2019-05-22T06:19:48.995Z,12.50
2019-05-22T06:22:19.853Z,13.03
2019-05-22T06:24:58.316Z,11.90
2019-05-22T06:27:30.415Z,11.63
2019-05-22T06:30:06.302Z,10.40
2019-05-22T06:32:55.502Z,11.37
2019-05-22T06:35:29.821Z,11.17
2019-05-22T06:38:05.148Z,8.87
2019-05-22T06:40:35.557Z,9.43
2019-05-22T06:43:24.704Z,11.77
2019-05-22T06:45:55.069Z,9.90
2019-05-22T06:48:24.738Z,8.73
2019-05-22T06:50:54.174Z,9.37
2019-05-22T06:53:23.864Z,9.77
2019-05-22T06:55:53.343Z,10.43
2019-05-22T06:58:22.760Z,10.53
2019-05-22T07:00:52.299Z,10.40
2019-05-22T07:03:22.910Z,12.17
2019-05-22T07:05:53.232Z,12.33
2019-05-22T07:08:23.327Z,10.07
2019-05-22T07:10:53.224Z,9.67
2019-05-22T07:13:22.696Z,9.97
2019-05-22T07:15:53.800Z,10.57
2019-05-22T07:18:26.469Z,9.57
2019-05-22T07:20:56.663Z,7.60
2019-05-22T07:23:27.518Z,7.37
2019-05-22T07:25:57.478Z,8.20
2019-05-22T07:28:27.747Z,7.07
2019-05-22T07:30:57.931Z,6.87
2019-05-22T07:33:27.876Z,7.67
2019-05-22T07:36:09.566Z,7.53
2019-05-22T07:38:29.571Z,7.70
2019-05-22T07:40:59.955Z,7.27
2019-05-22T07:43:29.463Z,8.00
2019-05-22T07:45:59.503Z,9.80
2019-05-22T07:48:31.003Z,6.13
2019-05-22T07:51:02.542Z,7.27
2019-05-22T07:53:32.362Z,6.77
2019-05-22T07:56:05.847Z,7.87
2019-05-22T07:58:35.819Z,7.27
2019-05-22T08:01:06.324Z,7.17
2019-05-22T08:03:37.070Z,7.27
2019-05-22T08:06:08.206Z,6.90
2019-05-22T08:08:39.817Z,6.50
2019-05-22T08:11:11.377Z,6.53
2019-05-22T08:13:43.527Z,6.27
2019-05-22T08:16:16.983Z,6.70
2019-05-22T08:18:46.811Z,6.23
2019-05-22T08:21:16.749Z,7.37
2019-05-22T08:23:46.324Z,7.37
2019-05-22T08:26:16.807Z,7.03
2019-05-22T08:28:46.879Z,6.60
2019-05-22T08:31:18.103Z,7.80
2019-05-22T08:33:47.648Z,7.23
2019-05-22T08:36:17.254Z,8.03
2019-05-22T08:38:47.604Z,7.67
2019-05-22T08:41:20.098Z,7.97
2019-05-22T08:44:13.760Z,7.97
2019-05-22T08:46:23.055Z,8.67
2019-05-22T08:48:53.287Z,10.00
2019-05-22T08:51:23.206Z,10.77
2019-05-22T08:53:54.584Z,11.70
2019-05-22T08:56:24.951Z,12.40
2019-05-22T08:58:55.134Z,11.93
2019-05-22T09:01:24.748Z,11.17
2019-05-22T09:03:54.680Z,12.23
2019-05-22T09:06:24.415Z,13.00
2019-05-22T09:08:53.797Z,15.17
2019-05-22T09:11:23.323Z,14.00
2019-05-22T09:13:52.963Z,14.83
2019-05-22T09:16:22.391Z,13.87
2019-05-22T09:18:52.383Z,17.77
2019-05-22T09:21:22.452Z,14.00
2019-05-22T09:23:51.816Z,17.33
2019-05-22T09:26:23.183Z,14.13
2019-05-22T09:28:52.844Z,14.57
2019-05-22T09:31:22.255Z,13.60
2019-05-22T09:33:52.044Z,14.43
2019-05-22T09:36:22.456Z,12.70
2019-05-22T09:38:52.788Z,14.97
2019-05-22T09:41:22.652Z,14.47
2019-05-22T09:43:52.024Z,15.33
2019-05-22T09:46:22.512Z,15.07
2019-05-22T09:48:52.461Z,17.97
2019-05-22T09:51:21.875Z,16.03
2019-05-22T09:53:51.233Z,17.10
2019-05-22T09:56:21.204Z,15.00
2019-05-22T09:58:52.350Z,15.50
2019-05-22T10:01:22.324Z,15.93
2019-05-22T10:03:51.705Z,16.67
2019-05-22T10:06:21.873Z,19.33
2019-05-22T10:08:53.142Z,15.73
2019-05-22T10:11:23.449Z,15.40
2019-05-22T10:13:53.020Z,16.87
2019-05-22T10:16:22.477Z,16.57
2019-05-22T10:18:53.584Z,16.80
2019-05-22T10:21:25.126Z,16.60
2019-05-22T10:23:55.623Z,17.03
2019-05-22T10:26:27.748Z,17.47
2019-05-22T10:28:57.562Z,16.87
2019-05-22T10:31:33.256Z,15.37
2019-05-22T10:34:02.995Z,16.27
2019-05-22T10:36:33.803Z,14.97
2019-05-22T10:39:05.034Z,18.57
2019-05-22T10:41:34.617Z,15.20
2019-05-22T10:44:05.004Z,19.53
2019-05-22T10:46:34.534Z,15.40
2019-05-22T10:49:04.346Z,15.37
2019-05-22T10:51:33.839Z,19.50
2019-05-22T10:54:03.284Z,15.83
2019-05-22T10:56:33.292Z,16.20
2019-05-22T10:59:02.735Z,16.30
2019-05-22T11:01:37.425Z,17.07
2019-05-22T11:04:05.791Z,14.80
2019-05-22T11:06:35.280Z,16.07
2019-05-22T11:09:06.850Z,16.43
2019-05-22T11:11:36.724Z,17.37
2019-05-22T11:14:09.532Z,16.27
2019-05-22T11:16:38.140Z,17.73
2019-05-22T11:19:08.311Z,15.83
2019-05-22T11:21:38.128Z,17.53
2019-05-22T11:24:07.813Z,15.93
2019-05-22T11:26:37.198Z,16.97
2019-05-22T11:29:07.076Z,17.97
2019-05-22T11:31:40.322Z,17.03
2019-05-22T11:34:10.038Z,19.40
2019-05-22T11:36:39.784Z,17.10
2019-05-22T11:39:12.795Z,19.77
2019-05-22T11:41:42.722Z,17.97
2019-05-22T11:44:12.703Z,18.93
2019-05-22T11:46:42.485Z,18.53
2019-05-22T11:49:11.912Z,19.60
2019-05-22T11:51:41.366Z,19.57
2019-05-22T11:54:10.796Z,19.77
2019-05-22T11:56:40.746Z,19.77
2019-05-22T11:59:11.231Z,20.37
2019-05-22T12:01:40.748Z,22.13
2019-05-22T12:04:11.410Z,18.13
2019-05-22T12:06:41.882Z,18.80
2019-05-22T12:09:12.149Z,19.73
2019-05-22T12:11:43.226Z,20.93
2019-05-22T12:14:13.894Z,19.47
2019-05-22T12:16:43.806Z,20.47
2019-05-22T12:19:13.229Z,19.77
2019-05-22T12:21:43.070Z,19.10
2019-05-22T12:24:25.993Z,21.67
2019-05-22T12:26:43.836Z,19.90
2019-05-22T12:29:17.199Z,20.63
2019-05-22T12:31:45.040Z,19.40
2019-05-22T12:34:15.062Z,18.40
2019-05-22T12:36:44.929Z,19.47
2019-05-22T12:39:14.835Z,19.30
2019-05-22T12:41:45.638Z,20.00
2019-05-22T12:44:15.625Z,18.60
2019-05-22T12:46:45.213Z,18.67
2019-05-22T12:49:14.815Z,18.13
2019-05-22T12:51:44.451Z,19.03
2019-05-22T12:54:13.869Z,18.40
2019-05-22T12:56:44.278Z,17.63
2019-05-22T12:59:15.362Z,18.80
2019-05-22T13:01:45.840Z,15.93
2019-05-22T13:04:17.939Z,17.57
2019-05-22T13:06:47.864Z,17.53
2019-05-22T13:09:17.851Z,15.47
2019-05-22T13:11:47.202Z,16.77
2019-05-22T13:14:16.933Z,17.00
2019-05-22T13:16:49.024Z,16.10
2019-05-22T13:19:18.667Z,15.57
2019-05-22T13:21:52.227Z,15.03
2019-05-22T13:24:23.072Z,16.73
2019-05-22T13:26:54.338Z,14.40
2019-05-22T13:29:25.369Z,14.67
2019-05-22T13:31:56.489Z,14.80
2019-05-22T13:34:28.259Z,13.70
2019-05-22T13:36:58.269Z,12.73
2019-05-22T13:39:27.792Z,13.60
2019-05-22T13:41:57.222Z,14.20
2019-05-22T13:44:28.095Z,14.80
2019-05-22T13:46:57.590Z,14.03
2019-05-22T13:49:28.372Z,12.03
2019-05-22T13:51:57.863Z,12.50
2019-05-22T13:54:27.995Z,13.03
2019-05-22T13:56:58.563Z,13.20
2019-05-22T13:59:29.257Z,12.13
2019-05-22T14:01:59.145Z,12.30
2019-05-22T14:04:28.961Z,12.27
2019-05-22T14:06:58.826Z,12.17
2019-05-22T14:09:29.917Z,13.33
2019-05-22T14:11:59.335Z,13.73
2019-05-22T14:14:28.778Z,13.10
2019-05-22T14:16:58.462Z,12.07
2019-05-22T14:19:27.984Z,12.27
2019-05-22T14:21:57.487Z,13.20
2019-05-22T14:24:26.915Z,12.17
2019-05-22T14:26:56.356Z,12.77
2019-05-22T14:29:26.286Z,12.10
2019-05-22T14:31:55.858Z,15.23
2019-05-22T14:34:25.536Z,13.40
2019-05-22T14:36:56.128Z,13.17
2019-05-22T14:39:26.329Z,12.63
2019-05-22T14:41:56.195Z,12.87
2019-05-22T14:44:25.705Z,11.43
2019-05-22T14:46:55.096Z,11.53
2019-05-22T14:49:24.609Z,12.33
2019-05-22T14:51:54.106Z,11.13
2019-05-22T14:54:23.839Z,13.03
2019-05-22T14:56:53.804Z,11.43
2019-05-22T14:59:23.800Z,11.67
2019-05-22T15:01:53.703Z,12.33
2019-05-22T15:04:23.377Z,11.73
2019-05-22T15:06:53.843Z,11.50
2019-05-22T15:09:23.357Z,11.10
2019-05-22T15:11:53.043Z,11.87
2019-05-22T15:14:22.578Z,12.33
2019-05-22T15:16:52.019Z,11.13
2019-05-22T15:19:22.024Z,10.03
2019-05-22T15:21:51.670Z,9.07
2019-05-22T15:24:22.355Z,8.43
2019-05-22T15:26:52.004Z,11.17
2019-05-22T15:29:21.376Z,8.90
2019-05-22T15:31:51.490Z,9.67
2019-05-22T15:34:21.452Z,7.93
2019-05-22T15:36:51.173Z,8.67
2019-05-22T15:39:23.728Z,10.03
2019-05-22T15:41:53.712Z,10.33
2019-05-22T15:44:23.212Z,8.87
2019-05-22T15:46:53.279Z,9.03
2019-05-22T15:49:22.783Z,8.43
2019-05-22T15:51:52.967Z,8.80
2019-05-22T15:54:23.374Z,8.43
2019-05-22T15:56:54.945Z,9.37
2019-05-22T15:59:25.709Z,8.53
2019-05-22T16:01:55.211Z,8.40
2019-05-22T16:04:25.091Z,10.70
2019-05-22T16:06:55.868Z,7.57
2019-05-22T16:09:27.546Z,7.37
2019-05-22T16:11:56.970Z,8.13
2019-05-22T16:14:29.223Z,10.13
2019-05-22T16:16:59.433Z,7.83
2019-05-22T16:19:30.691Z,7.60
2019-05-22T16:22:03.279Z,8.70
2019-05-22T16:24:34.083Z,8.67
2019-05-22T16:27:04.051Z,8.73
2019-05-22T16:29:34.739Z,7.43
2019-05-22T16:32:07.792Z,8.03
2019-05-22T16:34:39.410Z,7.80
2019-05-22T16:37:09.196Z,8.23
2019-05-22T16:39:39.891Z,7.67
2019-05-22T16:42:10.226Z,7.43
2019-05-22T16:44:40.341Z,8.03
2019-05-22T16:47:10.888Z,7.70
2019-05-22T16:49:40.656Z,7.27
2019-05-22T16:52:11.364Z,8.00
2019-05-22T16:54:42.013Z,7.33
2019-05-22T16:57:13.073Z,7.70
2019-05-22T16:59:42.943Z,7.13
2019-05-22T17:02:14.010Z,8.30
2019-05-22T17:04:43.793Z,7.30
2019-05-22T17:07:14.136Z,6.93
2019-05-22T17:09:44.521Z,6.43
2019-05-22T17:12:16.997Z,7.90
2019-05-22T17:14:48.643Z,7.67
2019-05-22T17:17:19.161Z,7.13
2019-05-22T17:19:49.874Z,6.60
2019-05-22T17:22:20.101Z,7.20
2019-05-22T17:24:49.434Z,6.47
2019-05-22T17:27:20.309Z,6.70
2019-05-22T17:29:51.488Z,7.63
2019-05-22T17:32:23.003Z,6.57
2019-05-22T17:34:52.440Z,6.60
2019-05-22T17:37:22.352Z,6.47
2019-05-22T17:39:52.321Z,8.43
2019-05-22T17:42:24.921Z,7.57
2019-05-22T17:44:55.318Z,6.30
2019-05-22T17:47:27.139Z,7.53
2019-05-22T17:49:57.675Z,7.00
2019-05-22T17:52:27.843Z,11.07
2019-05-22T17:54:58.398Z,6.93
2019-05-22T17:57:29.486Z,6.67
2019-05-22T17:59:59.368Z,7.33
2019-05-22T18:02:30.519Z,6.47
2019-05-22T18:04:59.938Z,7.63
2019-05-22T18:07:31.037Z,6.50
2019-05-22T18:10:00.669Z,6.87
2019-05-22T18:12:30.765Z,6.80
2019-05-22T18:15:01.064Z,6.77
2019-05-22T18:17:31.953Z,6.87
2019-05-22T18:20:01.371Z,7.07
2019-05-22T18:22:31.206Z,7.33
2019-05-22T18:25:01.307Z,6.87
2019-05-22T18:27:31.701Z,6.87
2019-05-22T18:30:01.123Z,6.70
2019-05-22T18:32:33.653Z,6.93
2019-05-22T18:35:03.756Z,6.83
2019-05-22T18:37:33.176Z,7.30
2019-05-22T18:40:03.435Z,7.17
2019-05-22T18:42:33.334Z,7.07
2019-05-22T18:45:02.804Z,7.30
2019-05-22T18:47:32.309Z,6.77
2019-05-22T18:50:01.741Z,7.13
2019-05-22T18:52:40.732Z,7.60
2019-05-22T18:55:03.428Z,7.37
2019-05-22T18:57:33.965Z,7.10
2019-05-22T19:00:06.232Z,7.63
2019-05-22T19:02:36.036Z,6.80
2019-05-22T19:05:07.106Z,8.67
2019-05-22T19:07:36.535Z,7.23
2019-05-22T19:10:07.169Z,6.80
2019-05-22T19:12:36.582Z,7.60
2019-05-22T19:15:07.091Z,6.53
2019-05-22T19:17:36.873Z,6.67
2019-05-22T19:20:07.305Z,7.07
2019-05-22T19:22:37.105Z,6.00
2019-05-22T19:25:07.017Z,7.23
2019-05-22T19:27:36.367Z,7.63
2019-05-22T19:30:06.298Z,7.30
2019-05-22T19:32:35.894Z,7.10
2019-05-22T19:35:09.185Z,9.70
2019-05-22T19:37:38.618Z,7.53
2019-05-22T19:40:10.160Z,7.10
2019-05-22T19:42:39.580Z,7.40
2019-05-22T19:45:10.990Z,7.97
2019-05-22T19:47:46.080Z,7.50
2019-05-22T19:50:23.397Z,8.10
2019-05-22T19:52:47.277Z,7.47
2019-05-22T19:55:19.139Z,7.70
2019-05-22T19:57:49.577Z,7.30
2019-05-22T20:00:20.034Z,7.97
2019-05-22T20:02:50.752Z,8.40
2019-05-22T20:05:22.657Z,7.97
2019-05-22T20:07:53.256Z,8.10
2019-05-22T20:10:23.521Z,8.73
2019-05-22T20:12:53.441Z,8.37
2019-05-22T20:15:23.982Z,7.83
2019-05-22T20:17:53.499Z,8.20
2019-05-22T20:20:24.454Z,8.00
2019-05-22T20:22:53.884Z,7.70
2019-05-22T20:25:24.458Z,7.63
2019-05-22T20:27:54.320Z,9.57
2019-05-22T20:30:24.541Z,8.67
2019-05-22T20:32:54.137Z,7.67
2019-05-22T20:35:24.108Z,10.60
2019-05-22T20:37:53.998Z,8.30
2019-05-22T20:40:25.019Z,9.20
2019-05-22T20:42:54.481Z,8.63
2019-05-22T20:45:27.687Z,8.50
2019-05-22T20:48:06.644Z,9.90
2019-05-22T20:50:37.349Z,9.93
2019-05-22T20:53:08.344Z,9.93
2019-05-22T20:55:38.681Z,9.33
2019-05-22T20:58:08.703Z,8.67
2019-05-22T21:00:39.597Z,11.00
2019-05-22T21:03:10.195Z,9.30
2019-05-22T21:08:38.088Z,9.27
2019-05-22T21:11:09.675Z,8.50
2019-05-22T21:13:39.891Z,9.60
2019-05-22T21:16:10.290Z,8.87
2019-05-22T21:18:41.398Z,8.83
2019-05-22T21:21:11.944Z,9.23
2019-05-22T21:23:42.510Z,9.10
2019-05-22T21:26:12.499Z,10.63
2019-05-22T21:28:42.112Z,9.43
2019-05-22T21:31:13.031Z,10.00
2019-05-22T21:33:42.515Z,9.20
2019-05-22T21:36:12.392Z,10.33
2019-05-22T21:38:42.028Z,9.90
2019-05-22T21:41:12.339Z,8.77
2019-05-22T21:43:42.546Z,9.10
2019-05-22T21:46:12.300Z,8.47
2019-05-22T21:48:42.862Z,8.67
2019-05-22T21:51:12.301Z,8.00
2019-05-22T21:53:42.650Z,9.17
2019-05-22T21:56:12.140Z,8.70
2019-05-22T21:58:42.419Z,8.30
2019-05-22T22:01:14.579Z,8.03
2019-05-22T22:03:46.148Z,9.27
2019-05-22T22:06:16.779Z,8.80
2019-05-22T22:08:47.048Z,9.50
2019-05-22T22:11:18.845Z,9.00
2019-05-22T22:13:49.186Z,9.83
2019-05-22T22:16:18.684Z,8.00
2019-05-22T22:18:48.037Z,10.23
2019-05-22T22:21:17.395Z,9.53
2019-05-22T22:23:47.583Z,8.50
2019-05-22T22:26:25.355Z,8.80
2019-05-22T22:28:48.730Z,8.87
2019-05-22T22:31:19.875Z,8.13
2019-05-22T22:33:52.290Z,9.00
2019-05-22T22:36:21.731Z,7.97
2019-05-22T22:38:51.826Z,8.33
2019-05-22T22:41:22.485Z,8.47
2019-05-22T22:43:52.659Z,8.80
2019-05-22T22:46:26.735Z,9.77
2019-05-22T22:48:59.064Z,8.77
2019-05-22T22:51:30.230Z,8.17
2019-05-22T22:54:00.775Z,8.27
2019-05-22T22:56:30.682Z,7.93
2019-05-22T22:59:00.193Z,8.73
2019-05-22T23:01:33.006Z,9.80
2019-05-22T23:04:05.167Z,7.80
2019-05-22T23:06:36.360Z,8.37
2019-05-22T23:09:08.000Z,7.13
2019-05-22T23:11:41.470Z,7.57
2019-05-22T23:14:11.244Z,8.00
2019-05-22T23:16:40.755Z,7.40
2019-05-22T23:19:14.449Z,7.80
2019-05-22T23:21:44.372Z,8.53
2019-05-22T23:24:14.224Z,7.73
2019-05-22T23:26:44.758Z,8.63
2019-05-22T23:29:15.512Z,7.93
2019-05-22T23:31:45.031Z,7.30
2019-05-22T23:34:14.878Z,7.97
2019-05-22T23:36:45.246Z,7.47
2019-05-22T23:39:17.708Z,6.90
2019-05-22T23:41:48.385Z,8.17
2019-05-22T23:44:19.915Z,7.63
2019-05-22T23:46:49.825Z,6.90
2019-05-22T23:49:19.344Z,8.20
2019-05-22T23:51:48.779Z,7.37
2019-05-22T23:54:19.751Z,8.53
2019-05-22T23:56:49.758Z,6.87
2019-05-22T23:59:19.457Z,7.27
